Terminal Aerodrome Forecast
Issued by NWS

Home | Current Version | Previous Version | Text Only | Print | Product List | Glossary On
Versions: 1 2 3 4 5 6 7 8 9 10 11 12 13 14 15 16
000
FTUS46 KMTR 251120
TAFSJC
TAF
KSJC 251120Z 2512/2612 VRB03KT P6SM OVC018
     FM251700 32011KT P6SM SCT020
     FM252100 31018G24KT P6SM FEW030
     FM260300 30009G16KT P6SM FEW020
     FM260600 21006KT P6SM BKN025=

USA.gov is the U.S. government's official web portal to all federal, state and local government web resources and services.